Time;durP1;ratioP1;P1;durP2;ratioP2;P2;SDS_P1;SDS_P2;PMS_P1;PMS_P2;Temp;Humidity;BMP_temperature;BMP_pressure;BME280_temperature;BME280_humidity;BME280_pressure;Samples;Min_cycle;Max_cycle;Signal;HPM_P1;HPM_P2
2022/01/07 00:00:26;;;;;;;6.60;2.85;;;;;;;2.90;48.45;100439.19;4422518;32;34023;-82
2022/01/07 00:03:11;;;;;;;5.95;2.60;;;;;;;2.61;49.24;100436.44;4424997;32;33271;-82
2022/01/07 00:05:42;;;;;;;5.75;2.30;;;;;;;2.81;49.07;100448.19;4410093;32;32887;-82
2022/01/07 00:08:13;;;;;;;8.25;3.97;;;;;;;2.78;49.14;100454.75;4423100;32;32314;-83
2022/01/07 00:10:40;;;;;;;7.72;3.28;;;;;;;2.70;49.17;100461.84;4435356;32;31830;-83
2022/01/07 00:13:08;;;;;;;9.75;3.87;;;;;;;2.91;48.69;100460.75;4410327;32;32297;-82
2022/01/07 00:15:36;;;;;;;11.85;4.00;;;;;;;2.95;48.79;100467.59;4422828;32;34577;-82
2022/01/07 00:18:06;;;;;;;13.98;4.72;;;;;;;3.05;48.84;100458.63;4409998;32;32629;-82
2022/01/07 00:20:37;;;;;;;8.52;3.33;;;;;;;2.63;49.41;100461.56;4422841;32;33637;-82
2022/01/07 00:23:06;;;;;;;6.28;2.83;;;;;;;2.57;49.51;100459.44;4422726;32;33284;-82
2022/01/07 00:25:33;;;;;;;6.00;2.42;;;;;;;2.78;49.08;100459.31;4422703;32;34362;-82
2022/01/07 00:28:01;;;;;;;7.40;2.72;;;;;;;2.69;48.99;100463.69;4409747;32;33517;-82
2022/01/07 00:30:33;;;;;;;7.22;2.50;;;;;;;2.65;49.20;100463.13;4423372;32;33965;-83
2022/01/07 00:33:04;;;;;;;5.35;2.40;;;;;;;2.75;49.20;100471.28;4411049;32;33245;-82
2022/01/07 00:35:35;;;;;;;6.80;3.20;;;;;;;2.87;48.86;100469.31;4423210;32;33763;-82
2022/01/07 00:38:04;;;;;;;7.15;3.28;;;;;;;2.93;48.64;100466.88;4423576;32;33791;-82
2022/01/07 00:40:32;;;;;;;6.55;2.85;;;;;;;2.73;49.16;100464.28;4423301;32;34066;-82
2022/01/07 00:43:00;;;;;;;6.97;2.50;;;;;;;2.52;49.70;100467.97;4422600;32;34370;-82
2022/01/07 00:45:28;;;;;;;8.85;3.28;;;;;;;2.47;49.84;100472.09;4422506;32;35193;-82
2022/01/07 00:47:59;;;;;;;5.95;2.53;;;;;;;2.52;50.29;100467.13;4422133;32;32413;-81
2022/01/07 00:50:29;;;;;;;6.53;2.90;;;;;;;2.61;49.74;100472.53;4421989;32;33489;-83
2022/01/07 00:52:59;;;;;;;9.18;3.42;;;;;;;2.44;50.09;100465.09;4397091;32;32237;-83
2022/01/07 00:55:27;;;;;;;7.55;3.05;;;;;;;2.47;50.05;100463.97;4422346;32;34433;-82
2022/01/07 00:57:56;;;;;;;5.65;2.70;;;;;;;2.35;50.06;100459.62;4435000;32;34428;-82
2022/01/07 01:00:26;;;;;;;8.15;3.05;;;;;;;2.52;50.19;100459.00;4422283;32;33954;-82
2022/01/07 01:02:55;;;;;;;9.70;3.17;;;;;;;2.56;50.14;100455.88;4422411;32;32072;-82
2022/01/07 01:05:23;;;;;;;8.00;2.92;;;;;;;2.47;50.17;100447.72;4411223;32;32882;-82
2022/01/07 01:07:51;;;;;;;7.85;2.92;;;;;;;2.52;50.12;100446.28;4439095;32;33699;-81
2022/01/07 01:10:22;;;;;;;6.10;2.60;;;;;;;2.17;51.16;100446.75;4423389;32;33288;-82
2022/01/07 01:12:51;;;;;;;8.53;3.00;;;;;;;1.90;51.74;100446.50;4422596;32;33814;-81
2022/01/07 01:15:22;;;;;;;6.62;2.83;;;;;;;2.04;51.62;100450.69;4423874;32;32683;-82
2022/01/07 01:17:54;;;;;;;7.57;2.83;;;;;;;1.76;52.44;100455.84;4422693;32;33902;-82
2022/01/07 01:20:22;;;;;;;5.12;2.33;;;;;;;1.98;51.85;100443.94;4422794;32;32714;-82
2022/01/07 01:22:53;;;;;;;11.52;2.95;;;;;;;2.14;51.74;100433.47;4423663;32;34363;-81
2022/01/07 01:25:20;;;;;;;5.13;2.47;;;;;;;2.13;51.78;100430.91;4410164;32;33703;-81
2022/01/07 01:27:48;;;;;;;8.45;2.90;;;;;;;2.29;51.49;100428.53;4409548;32;32477;-82
2022/01/07 01:30:26;;;;;;;7.30;2.60;;;;;;;1.97;52.19;100418.72;4422042;32;33633;-82
2022/01/07 01:32:58;;;;;;;7.45;2.85;;;;;;;2.03;52.24;100435.44;4435452;32;33364;-82
2022/01/07 01:35:27;;;;;;;7.60;3.23;;;;;;;2.16;51.96;100436.91;4409845;32;34455;-81
2022/01/07 01:37:55;;;;;;;7.82;3.40;;;;;;;2.16;52.36;100455.88;4434889;32;33247;-81
2022/01/07 01:40:25;;;;;;;6.90;2.58;;;;;;;2.11;52.27;100457.25;4409280;32;33090;-82
2022/01/07 01:42:57;;;;;;;9.38;3.12;;;;;;;2.29;51.63;100451.06;4409404;32;32314;-81
2022/01/07 01:45:27;;;;;;;9.65;3.50;;;;;;;2.03;52.44;100446.25;4421646;32;35038;-81
2022/01/07 01:47:58;;;;;;;10.10;3.37;;;;;;;2.20;51.80;100442.91;4409266;32;33290;-82
2022/01/07 01:50:26;;;;;;;6.03;3.03;;;;;;;2.19;52.01;100449.31;4421793;32;34050;-81
2022/01/07 01:52:57;;;;;;;5.72;2.95;;;;;;;2.20;52.14;100457.31;4421555;32;32285;-82
2022/01/07 01:55:27;;;;;;;5.87;2.50;;;;;;;2.23;51.82;100465.16;4419750;32;32786;-82
2022/01/07 01:57:55;;;;;;;8.48;2.83;;;;;;;2.20;51.88;100472.69;4421668;32;33619;-81
2022/01/07 02:00:25;;;;;;;7.35;2.42;;;;;;;2.14;51.97;100471.37;4435654;32;34098;-82
2022/01/07 02:02:53;;;;;;;6.50;2.62;;;;;;;1.94;52.47;100485.84;4423895;32;34064;-82
2022/01/07 02:05:22;;;;;;;9.35;3.30;;;;;;;2.39;51.35;100480.91;4423662;32;35422;-82
2022/01/07 02:07:50;;;;;;;8.53;3.40;;;;;;;2.16;51.67;100480.22;4411260;32;33769;-82
2022/01/07 02:10:18;;;;;;;8.25;3.00;;;;;;;2.00;52.22;100490.69;4423656;32;31861;-83
2022/01/07 02:12:45;;;;;;;9.05;3.00;;;;;;;2.02;52.20;100494.13;4423677;32;34539;-81
2022/01/07 02:15:14;;;;;;;10.13;2.87;;;;;;;2.08;51.54;100492.72;4411104;32;33874;-81
2022/01/07 02:17:49;;;;;;;7.47;2.70;;;;;;;1.51;52.56;100484.16;4423614;32;34211;-81
2022/01/07 02:20:22;;;;;;;9.45;3.03;;;;;;;1.31;53.54;100479.56;4410933;32;32689;-82
2022/01/07 02:22:50;;;;;;;8.88;3.40;;;;;;;1.31;53.75;100493.09;4423888;32;34466;-82
2022/01/07 02:25:21;;;;;;;7.22;3.28;;;;;;;1.40;53.17;100491.47;4436157;32;34464;-81
2022/01/07 02:27:49;;;;;;;8.02;3.58;;;;;;;1.84;52.08;100490.34;4422884;32;33366;-82
2022/01/07 02:30:23;;;;;;;7.07;3.07;;;;;;;1.14;53.56;100474.78;4410869;32;31555;-82
2022/01/07 02:32:51;;;;;;;6.47;3.08;;;;;;;1.06;54.18;100472.72;4423435;32;33677;-81
2022/01/07 02:35:20;;;;;;;7.70;3.10;;;;;;;1.28;53.63;100482.56;4423304;32;33917;-82
2022/01/07 02:37:49;;;;;;;10.15;2.83;;;;;;;1.05;54.06;100481.81;4423689;32;34496;-82
2022/01/07 02:40:17;;;;;;;6.63;2.70;;;;;;;1.57;52.97;100491.75;4423191;32;31755;-81
2022/01/07 02:42:48;;;;;;;9.23;3.22;;;;;;;1.47;52.80;100490.81;4423319;32;33250;-81
2022/01/07 02:45:15;;;;;;;6.32;3.03;;;;;;;1.51;52.52;100483.28;4423253;32;32942;-82
2022/01/07 02:47:55;;;;;;;9.35;3.05;;;;;;;1.50;52.17;100484.28;4423601;32;33881;-81
2022/01/07 02:50:30;;;;;;;4.93;2.70;;;;;;;0.97;53.87;100485.16;4410808;32;32845;-82
2022/01/07 02:52:58;;;;;;;7.07;2.65;;;;;;;1.48;52.81;100486.25;4436763;32;33785;-81
2022/01/07 02:55:27;;;;;;;7.50;3.12;;;;;;;1.47;52.36;100488.09;4424704;32;32980;-81
2022/01/07 02:57:57;;;;;;;8.32;3.22;;;;;;;1.48;52.84;100478.16;4423450;32;32651;-81
2022/01/07 03:00:26;;;;;;;9.30;2.90;;;;;;;1.69;52.16;100473.59;4423901;32;31814;-81
2022/01/07 03:02:55;;;;;;;10.93;3.00;;;;;;;1.48;52.40;100473.59;4436930;32;33192;-82
2022/01/07 03:05:23;;;;;;;8.45;2.60;;;;;;;1.58;52.27;100469.09;4410707;32;32918;-82
2022/01/07 03:07:51;;;;;;;6.50;2.30;;;;;;;1.73;52.06;100475.03;4423751;32;32563;-81
2022/01/07 03:10:29;;;;;;;8.38;2.85;;;;;;;1.84;51.81;100476.81;4424509;32;31763;-81
2022/01/07 03:13:00;;;;;;;6.32;2.30;;;;;;;1.91;51.72;100480.69;4411119;32;33136;-81
2022/01/07 03:15:29;;;;;;;6.50;2.90;;;;;;;2.13;51.47;100480.50;4423114;32;32714;-81
2022/01/07 03:17:58;;;;;;;7.03;2.93;;;;;;;2.20;51.52;100483.53;4410587;32;32489;-81
2022/01/07 03:20:26;;;;;;;10.52;4.20;;;;;;;2.23;51.61;100483.25;4423072;32;31623;-81
2022/01/07 03:22:54;;;;;;;12.37;4.10;;;;;;;2.21;51.39;100482.53;4423307;32;33198;-81
2022/01/07 03:25:25;;;;;;;7.50;2.50;;;;;;;2.14;51.73;100503.88;4423183;32;33297;-81
2022/01/07 03:27:56;;;;;;;9.20;3.05;;;;;;;1.89;51.94;100509.75;4410670;32;32452;-81
2022/01/07 03:30:24;;;;;;;6.53;2.65;;;;;;;2.19;51.61;100512.47;4423021;32;32816;-81
2022/01/07 03:32:52;;;;;;;7.15;3.25;;;;;;;2.05;51.85;100509.25;4422969;32;32254;-81
2022/01/07 03:35:20;;;;;;;6.43;3.00;;;;;;;2.05;51.33;100515.50;4410483;32;34028;-81
2022/01/07 03:37:51;;;;;;;6.30;2.80;;;;;;;1.99;51.34;100524.16;4423054;32;33015;-81
2022/01/07 03:40:22;;;;;;;7.75;2.85;;;;;;;2.08;51.31;100514.38;4410416;32;31761;-81
2022/01/07 03:42:50;;;;;;;6.23;2.90;;;;;;;1.88;51.69;100518.87;4423285;32;32692;-81
2022/01/07 03:45:21;;;;;;;6.50;2.90;;;;;;;1.93;51.61;100516.62;4422937;32;34473;-81
2022/01/07 03:47:53;;;;;;;8.38;2.80;;;;;;;1.93;51.73;100527.44;4423009;32;33899;-81
2022/01/07 03:50:25;;;;;;;6.18;2.60;;;;;;;1.99;51.08;100521.47;4423223;32;33171;-81
2022/01/07 03:52:56;;;;;;;8.27;2.65;;;;;;;1.91;51.35;100524.87;4422847;32;33593;-81
2022/01/07 03:55:27;;;;;;;6.07;2.50;;;;;;;1.68;52.11;100533.25;4410604;32;35217;-81
2022/01/07 03:57:55;;;;;;;10.30;3.67;;;;;;;1.62;52.36;100529.22;4410260;32;32441;-81
2022/01/07 04:00:34;;;;;;;7.12;3.40;;;;;;;1.72;51.64;100526.59;4423090;32;33105;-81
2022/01/07 04:03:08;;;;;;;8.40;3.37;;;;;;;1.63;51.90;100520.97;4410806;32;33155;-81
2022/01/07 04:05:35;;;;;;;8.35;3.47;;;;;;;1.83;51.73;100523.81;4410047;32;33002;-81
2022/01/07 04:08:05;;;;;;;7.25;3.03;;;;;;;1.94;51.37;100527.31;4422884;32;34978;-81
2022/01/07 04:10:33;;;;;;;6.40;2.97;;;;;;;1.84;51.82;100523.69;4422914;32;33206;-81
2022/01/07 04:13:07;;;;;;;7.12;2.70;;;;;;;1.81;51.71;100520.38;4410300;32;32043;-81
2022/01/07 04:15:36;;;;;;;6.90;3.15;;;;;;;1.87;51.56;100518.00;4410174;32;33070;-81
2022/01/07 04:18:04;;;;;;;6.77;2.60;;;;;;;1.45;52.68;100517.12;4422821;32;33563;-81
2022/01/07 04:20:33;;;;;;;6.57;2.80;;;;;;;1.65;51.76;100513.59;4422762;32;31669;-81
2022/01/07 04:23:02;;;;;;;7.70;2.90;;;;;;;1.17;52.86;100512.34;4435193;32;33940;-81
2022/01/07 04:25:31;;;;;;;7.53;3.00;;;;;;;1.35;52.37;100513.47;4422107;32;34471;-81
2022/01/07 04:28:04;;;;;;;5.47;2.47;;;;;;;1.56;51.95;100513.50;4422817;32;34092;-80
2022/01/07 04:30:38;;;;;;;7.12;3.03;;;;;;;1.45;52.14;100519.84;4422782;32;31935;-80
2022/01/07 04:33:11;;;;;;;6.80;2.58;;;;;;;1.22;52.56;100529.06;4410054;32;32368;-80
2022/01/07 04:35:42;;;;;;;6.97;3.13;;;;;;;1.35;52.25;100529.72;4422611;32;34406;-80
2022/01/07 04:38:10;;;;;;;7.80;3.67;;;;;;;1.55;51.98;100530.72;4410014;32;32508;-81
2022/01/07 04:40:38;;;;;;;7.03;3.30;;;;;;;1.24;52.63;100525.25;4409911;32;31718;-80
2022/01/07 04:43:06;;;;;;;9.10;3.70;;;;;;;1.16;53.30;100529.56;4422888;32;33565;-80
2022/01/07 04:45:36;;;;;;;10.35;3.60;;;;;;;1.20;53.28;100531.03;4422594;32;35401;-80
2022/01/07 04:48:05;;;;;;;11.67;3.77;;;;;;;1.14;53.08;100539.66;4422505;32;34543;-80
2022/01/07 04:50:33;;;;;;;7.07;3.42;;;;;;;1.03;53.69;100545.09;4409121;32;33650;-80
2022/01/07 04:53:02;;;;;;;10.90;4.05;;;;;;;1.10;53.39;100535.47;4422604;32;34025;-81
2022/01/07 04:55:36;;;;;;;9.00;4.00;;;;;;;0.90;54.02;100538.00;4422304;32;33997;-80
2022/01/07 04:58:07;;;;;;;7.20;3.30;;;;;;;1.19;53.40;100550.94;4409921;32;33433;-80
2022/01/07 05:00:35;;;;;;;7.37;3.17;;;;;;;1.12;53.31;100549.72;4422341;32;32710;-81
2022/01/07 05:03:03;;;;;;;9.02;3.80;;;;;;;1.21;52.82;100530.91;4422494;32;33700;-80
2022/01/07 05:05:31;;;;;;;9.63;3.70;;;;;;;1.15;52.68;100535.97;4422324;32;35171;-80
2022/01/07 05:07:59;;;;;;;10.38;3.37;;;;;;;1.06;52.78;100536.72;4422261;32;33413;-81
2022/01/07 05:10:27;;;;;;;7.55;3.30;;;;;;;0.94;53.34;100536.75;4434872;32;31881;-76
2022/01/07 05:12:57;;;;;;;9.25;3.72;;;;;;;0.90;53.53;100531.72;4409710;32;34173;-79
2022/01/07 05:15:30;;;;;;;10.27;4.03;;;;;;;0.98;53.29;100530.09;4409607;32;35226;-77
2022/01/07 05:18:03;;;;;;;8.30;3.33;;;;;;;1.14;53.01;100539.66;4421805;32;33690;-79
2022/01/07 05:20:31;;;;;;;8.77;3.97;;;;;;;1.10;52.97;100535.47;4421965;32;31987;-79
2022/01/07 05:23:01;;;;;;;17.42;7.07;;;;;;;1.15;52.69;100535.97;4422042;32;32236;-79
2022/01/07 05:25:42;;;;;;;29.33;12.57;;;;;;;1.11;52.73;100537.19;4422040;32;35345;-79
2022/01/07 05:28:13;;;;;;;35.70;17.83;;;;;;;0.87;53.28;100535.53;4421983;32;34890;-79
2022/01/07 05:30:46;;;;;;;70.72;31.23;;;;;;;0.93;53.14;100548.53;4422251;32;33095;-80
2022/01/07 05:33:16;;;;;;;78.80;31.62;;;;;;;0.97;52.92;100541.91;4421935;32;32232;-78
2022/01/07 05:35:43;;;;;;;30.30;14.43;;;;;;;0.93;52.88;100539.59;4422590;32;32812;-79
2022/01/07 05:38:11;;;;;;;59.80;27.70;;;;;;;1.11;67.98;100554.28;4436435;32;34591;-79
2022/01/07 05:40:40;;;;;;;35.17;17.63;;;;;;;1.43;63.05;100554.25;4423850;32;33947;-78
2022/01/07 05:43:13;;;;;;;17.37;7.40;;;;;;;1.06;56.44;100551.09;4423807;32;32011;-79
2022/01/07 05:45:45;;;;;;;13.87;5.67;;;;;;;1.15;54.43;100542.22;4425064;32;34498;-79
2022/01/07 05:48:13;;;;;;;12.88;5.00;;;;;;;1.13;53.21;100543.34;4420601;32;34580;-80
2022/01/07 05:50:41;;;;;;;80.90;29.30;;;;;;;1.23;52.67;100549.69;4395677;32;32759;-79
2022/01/07 05:53:10;;;;;;;36.85;13.73;;;;;;;1.01;52.94;100549.75;4395769;32;32280;-78
2022/01/07 05:55:40;;;;;;;12.68;5.70;;;;;;;0.80;53.07;100547.84;4408196;32;33144;-78
2022/01/07 05:58:08;;;;;;;14.37;4.93;;;;;;;0.91;52.85;100558.63;4395847;32;33680;-78
2022/01/07 06:00:38;;;;;;;11.98;4.62;;;;;;;0.97;52.68;100550.00;4396432;32;33416;-77
2022/01/07 06:03:08;;;;;;;9.27;3.97;;;;;;;0.80;53.08;100553.22;4395885;32;32233;-78
2022/01/07 06:05:39;;;;;;;11.27;4.22;;;;;;;0.80;53.72;100558.63;4398513;32;33075;-78
2022/01/07 06:08:11;;;;;;;7.45;3.45;;;;;;;0.91;54.66;100571.28;4409971;32;33934;-78
2022/01/07 06:10:39;;;;;;;11.10;3.55;;;;;;;0.92;53.23;100563.03;4395421;32;33103;-78
2022/01/07 06:13:07;;;;;;;6.75;3.45;;;;;;;0.78;52.21;100563.31;4397425;32;33672;-79
2022/01/07 06:15:38;;;;;;;7.43;3.73;;;;;;;0.87;51.85;100573.38;4394847;32;33047;-79
2022/01/07 06:18:05;;;;;;;10.03;3.80;;;;;;;0.96;51.37;100563.66;4381216;32;32291;-79
2022/01/07 06:20:34;;;;;;;23.48;12.73;;;;;;;0.84;51.34;100560.09;4394064;32;32778;-78
2022/01/07 06:23:04;;;;;;;16.30;9.43;;;;;;;0.76;51.50;100564.41;4394127;32;33427;-80
2022/01/07 06:25:35;;;;;;;13.77;6.43;;;;;;;0.71;51.75;100569.34;4393618;32;33732;-79
2022/01/07 06:28:03;;;;;;;11.25;5.20;;;;;;;0.73;51.62;100572.78;4394070;32;33876;-78
2022/01/07 06:30:30;;;;;;;10.90;5.23;;;;;;;0.73;51.98;100573.63;4395631;32;32888;-79
2022/01/07 06:33:00;;;;;;;11.93;4.97;;;;;;;0.75;51.69;100574.38;4395570;32;32255;-78
2022/01/07 06:35:28;;;;;;;13.13;5.27;;;;;;;0.80;51.62;100572.16;4420193;32;34329;-79
2022/01/07 06:37:55;;;;;;;16.02;10.88;;;;;;;0.49;51.97;100597.25;4408207;32;34028;-79
2022/01/07 06:40:23;;;;;;;13.87;5.40;;;;;;;0.27;52.65;100590.84;4395557;32;31819;-79
2022/01/07 06:42:51;;;;;;;12.00;5.20;;;;;;;0.20;53.21;100595.00;4421034;32;34403;-79
2022/01/07 06:45:21;;;;;;;18.15;4.75;;;;;;;0.26;52.98;100599.91;4395708;32;34404;-79
2022/01/07 06:47:51;;;;;;;11.13;6.57;;;;;;;-0.05;54.07;100601.47;4407372;32;33944;-80
2022/01/07 06:50:22;;;;;;;14.40;5.17;;;;;;;0.29;53.09;100596.13;4395666;32;33430;-79
2022/01/07 06:52:50;;;;;;;39.60;21.67;;;;;;;0.40;52.59;100595.28;4407702;32;33652;-79
2022/01/07 06:55:21;;;;;;;16.62;7.60;;;;;;;0.24;53.38;100593.78;4395451;32;34543;-79
2022/01/07 06:57:49;;;;;;;17.25;9.93;;;;;;;0.36;53.17;100599.19;4395781;32;34057;-79
2022/01/07 07:00:17;;;;;;;25.42;14.05;;;;;;;0.30;52.96;100601.41;4395505;32;33435;-79
2022/01/07 07:02:45;;;;;;;22.50;10.52;;;;;;;0.04;53.79;100601.72;4407835;32;33224;-79
2022/01/07 07:05:13;;;;;;;25.30;8.20;;;;;;;0.21;53.70;100598.56;4395606;32;34372;-79
2022/01/07 07:07:43;;;;;;;12.70;7.30;;;;;;;0.41;52.89;100607.78;4394842;32;32545;-78
2022/01/07 07:10:11;;;;;;;11.98;7.45;;;;;;;0.53;52.67;100599.56;4420312;32;33477;-78
2022/01/07 07:12:39;;;;;;;15.13;5.07;;;;;;;0.17;53.55;100607.88;4407817;32;33666;-78
2022/01/07 07:15:07;;;;;;;12.88;6.28;;;;;;;0.52;52.70;100607.78;4407682;32;33848;-79
2022/01/07 07:17:34;;;;;;;13.23;5.60;;;;;;;0.35;53.29;100605.56;4395613;32;34035;-78
2022/01/07 07:20:03;;;;;;;14.10;5.03;;;;;;;0.33;53.31;100603.84;4395554;32;33363;-78
2022/01/07 07:22:33;;;;;;;8.88;5.37;;;;;;;0.47;52.92;100610.00;4407800;32;33733;-78
2022/01/07 07:25:03;;;;;;;10.57;4.07;;;;;;;0.27;53.58;100609.72;4395566;32;34660;-75
2022/01/07 07:27:31;;;;;;;12.23;6.07;;;;;;;0.89;77.78;100601.12;4414785;32;33875;-79
2022/01/07 07:29:59;;;;;;;14.13;5.15;;;;;;;1.05;69.21;100616.09;4410325;32;34128;-79
2022/01/07 07:32:29;;;;;;;16.60;6.03;;;;;;;1.00;66.14;100619.16;4424685;32;34617;-79
2022/01/07 07:37:30;;;;;;;14.52;5.72;;;;;;;0.68;56.35;100619.06;4425582;32;32751;-79
2022/01/07 07:39:59;;;;;;;18.48;8.95;;;;;;;0.57;54.83;100616.41;4425620;32;33381;-79
2022/01/07 07:42:27;;;;;;;28.07;10.53;;;;;;;0.62;54.40;100617.75;4425191;32;32304;-80
2022/01/07 07:44:55;;;;;;;40.65;16.12;;;;;;;0.67;54.03;100625.44;4412913;32;32929;-79
2022/01/07 07:47:27;;;;;;;33.30;14.77;;;;;;;0.44;54.74;100626.44;4401184;32;32237;-79
2022/01/07 07:49:55;;;;;;;33.67;13.40;;;;;;;0.66;54.16;100613.78;4410027;32;33426;-79
2022/01/07 07:52:26;;;;;;;32.53;14.82;;;;;;;0.83;53.46;100615.12;4409953;32;32400;-79
2022/01/07 07:54:57;;;;;;;25.73;12.30;;;;;;;0.35;54.62;100616.37;4410214;32;34347;-79
2022/01/07 07:57:29;;;;;;;21.67;10.07;;;;;;;0.40;54.59;100622.28;4407365;32;33508;-79
2022/01/07 07:59:59;;;;;;;27.20;10.37;;;;;;;0.60;53.76;100624.25;4421436;32;33264;-79
2022/01/07 08:02:30;;;;;;;24.30;10.70;;;;;;;0.45;54.13;100618.22;4435252;32;34817;-79
2022/01/07 08:04:58;;;;;;;22.40;10.05;;;;;;;0.60;54.15;100629.66;4410213;32;34566;-79
2022/01/07 08:07:28;;;;;;;14.20;7.20;;;;;;;0.52;54.38;100624.00;4399207;32;33959;-79
2022/01/07 08:09:56;;;;;;;15.50;6.80;;;;;;;0.79;53.82;100618.19;4408707;32;33088;-79
2022/01/07 08:12:39;;;;;;;17.10;7.67;;;;;;;0.50;54.14;100629.53;4409802;32;33189;-79
2022/01/07 08:17:53;;;;;;;;;;;;;;;0.83;53.20;100625.94;4401990;32;33788;-79
2022/01/07 08:20:21;;;;;;;27.20;12.50;;;;;;;0.94;53.19;100625.06;4398917;32;33929;-80
2022/01/07 08:22:51;;;;;;;26.13;12.57;;;;;;;0.85;53.57;100633.91;4400780;32;34373;-80
2022/01/07 08:25:19;;;;;;;32.23;12.50;;;;;;;1.19;52.92;100634.75;4403856;32;33849;-80
2022/01/07 08:27:49;;;;;;;32.50;14.30;;;;;;;0.99;53.40;100644.47;4415201;32;33849;-80
2022/01/07 08:30:24;;;;;;;23.33;11.97;;;;;;;0.86;54.00;100633.78;4402935;32;32347;-80
2022/01/07 08:35:40;;;;;;;24.07;11.80;;;;;;;1.03;53.59;100642.38;4397730;32;33068;-79
2022/01/07 08:38:08;;;;;;;22.77;11.20;;;;;;;1.06;53.67;100631.31;4415671;32;32973;-79
2022/01/07 08:40:36;;;;;;;23.80;10.50;;;;;;;1.29;53.11;100630.31;4404451;32;34189;-79
2022/01/07 08:43:06;;;;;;;28.90;10.70;;;;;;;1.08;53.74;100638.31;4402968;32;32239;-79
2022/01/07 08:45:39;;;;;;;22.53;9.57;;;;;;;1.28;53.42;100639.41;4415882;32;35175;-79
2022/01/07 08:48:07;;;;;;;23.77;11.67;;;;;;;1.28;53.45;100636.69;4392450;32;33950;-79
2022/01/07 08:50:35;;;;;;;21.33;10.70;;;;;;;1.09;54.18;100634.63;4412954;32;31770;-79
2022/01/07 08:53:03;;;;;;;18.13;8.63;;;;;;;1.15;54.03;100635.97;4411972;32;34848;-79
2022/01/07 08:55:33;;;;;;;21.00;9.23;;;;;;;1.37;53.35;100643.16;4383181;32;32967;-79
2022/01/07 08:58:01;;;;;;;17.25;8.02;;;;;;;1.52;53.00;100641.91;4422131;32;33823;-79
2022/01/07 09:00:30;;;;;;;19.05;8.10;;;;;;;1.33;53.43;100645.25;4407425;32;31919;-79
2022/01/07 09:02:58;;;;;;;16.80;7.33;;;;;;;1.29;53.97;100641.13;4429580;32;34589;-79
2022/01/07 09:05:26;;;;;;;16.20;7.10;;;;;;;1.47;53.87;100636.87;4409106;32;33115;-78
2022/01/07 09:07:55;;;;;;;14.77;7.07;;;;;;;1.65;53.37;100646.16;4409018;32;33970;-79
2022/01/07 09:10:30;;;;;;;17.58;8.70;;;;;;;1.34;53.83;100638.88;4396278;32;32741;-79
2022/01/07 09:12:57;;;;;;;15.93;8.52;;;;;;;1.73;52.77;100629.28;4421891;32;33695;-79
2022/01/07 09:15:28;;;;;;;18.67;9.05;;;;;;;1.79;52.74;100628.75;4409622;32;34395;-79
2022/01/07 09:17:56;;;;;;;18.98;9.70;;;;;;;1.83;53.21;100627.50;4386229;32;33540;-79
2022/01/07 09:24:19;;;;;;;8.55;4.10;;;;;;;1.79;50.77;100619.78;4423055;32;34625;-80
2022/01/07 09:26:51;;;;;;;9.47;4.10;;;;;;;2.08;49.00;100615.41;4424983;32;34438;-80
2022/01/07 09:29:22;;;;;;;10.23;3.92;;;;;;;2.11;48.98;100612.44;4396245;32;116167;-80
2022/01/07 09:31:51;;;;;;;9.63;4.22;;;;;;;2.02;49.80;100613.25;4408401;32;33251;-80
2022/01/07 09:34:19;;;;;;;10.63;4.50;;;;;;;2.22;49.20;100611.53;4409412;32;33563;-80
2022/01/07 09:37:03;;;;;;;11.43;4.83;;;;;;;2.23;49.23;100608.69;4397994;32;33932;-80
2022/01/07 09:39:32;;;;;;;11.65;3.62;;;;;;;2.20;49.01;100606.25;4421925;32;33832;-80
2022/01/07 09:42:00;;;;;;;6.97;3.22;;;;;;;2.30;48.82;100609.00;4384201;32;32871;-81
2022/01/07 09:44:28;;;;;;;9.40;3.00;;;;;;;2.35;48.51;100601.34;4409285;32;34077;-79
2022/01/07 09:46:57;;;;;;;6.25;3.20;;;;;;;2.45;47.94;100601.41;4409348;32;34456;-80
2022/01/07 09:49:26;;;;;;;6.82;2.72;;;;;;;2.54;46.57;100590.63;4409195;32;34774;-81
2022/01/07 09:51:58;;;;;;;7.57;2.80;;;;;;;2.58;46.62;100583.06;4397507;32;32680;-80
2022/01/07 09:54:26;;;;;;;9.73;3.33;;;;;;;2.74;46.59;100575.25;4418729;32;33895;-81
2022/01/07 09:56:54;;;;;;;11.23;3.37;;;;;;;2.76;45.96;100577.84;4406155;32;33032;-80
2022/01/07 09:59:31;;;;;;;13.50;5.55;;;;;;;2.75;45.40;100576.13;4398543;32;34671;-80
2022/01/07 10:02:03;;;;;;;11.02;4.78;;;;;;;2.76;45.04;100581.41;4418830;32;33198;-80
2022/01/07 10:04:41;;;;;;;9.32;3.60;;;;;;;2.88;44.68;100583.03;4418809;32;35040;-80
2022/01/07 10:07:22;;;;;;;9.48;4.78;;;;;;;2.87;44.98;100577.72;4418410;32;35076;-80
2022/01/07 10:10:02;;;;;;;10.20;3.85;;;;;;;3.03;44.81;100575.34;4407304;32;33835;-80
2022/01/07 10:12:35;;;;;;;10.10;3.85;;;;;;;2.92;45.44;100578.19;4406311;32;33180;-81
2022/01/07 10:15:18;;;;;;;11.63;4.85;;;;;;;3.11;45.33;100561.09;4418309;32;34487;-80
2022/01/07 10:17:58;;;;;;;15.27;6.53;;;;;;;3.10;44.59;100556.69;4405737;32;33014;-80
2022/01/07 10:20:44;;;;;;;12.00;5.50;;;;;;;3.34;45.07;100558.97;4392035;32;32014;-80
2022/01/07 10:23:25;;;;;;;7.95;3.62;;;;;;;3.29;45.40;100548.53;4410631;32;33508;-80
2022/01/07 10:25:55;;;;;;;9.95;3.55;;;;;;;3.44;45.16;100552.56;4408466;32;33920;-79
2022/01/07 10:28:37;;;;;;;12.73;4.60;;;;;;;3.32;45.23;100540.12;4396614;32;34341;-80
2022/01/07 10:31:08;;;;;;;11.75;4.20;;;;;;;3.47;44.19;100546.84;4408109;32;34898;-80
2022/01/07 10:33:40;;;;;;;10.80;3.97;;;;;;;3.52;44.48;100541.84;4383793;32;32851;-80
2022/01/07 10:36:07;;;;;;;10.57;3.60;;;;;;;3.55;44.56;100544.28;4408063;32;33961;-79
2022/01/07 10:38:44;;;;;;;8.52;3.65;;;;;;;3.48;43.65;100540.41;4411875;32;34070;-80
2022/01/07 10:41:18;;;;;;;9.23;3.92;;;;;;;3.44;44.04;100525.44;4415400;32;33785;-80
2022/01/07 10:43:47;;;;;;;58.55;26.73;;;;;;;3.56;43.94;100520.72;4407978;32;33902;-80
2022/01/07 10:46:30;;;;;;;46.37;23.25;;;;;;;3.67;43.69;100517.00;4408129;32;32154;-80
2022/01/07 10:49:30;;;;;;;21.17;8.48;;;;;;;3.94;44.55;100514.34;4407514;32;32987;-79
2022/01/07 10:51:59;;;;;;;10.32;4.22;;;;;;;4.00;44.53;100513.75;4407671;32;34650;-80
2022/01/07 10:54:26;;;;;;;6.32;3.25;;;;;;;3.95;43.88;100505.19;4421649;32;31361;-80
2022/01/07 10:57:09;;;;;;;6.93;3.30;;;;;;;3.96;43.51;100504.19;4402330;32;33977;-81
2022/01/07 11:07:17;;;;;;;5.97;2.60;;;;;;;4.14;44.28;100502.44;4405840;32;31341;-81
2022/01/07 11:09:55;;;;;;;5.82;2.83;;;;;;;4.16;42.75;100486.84;4398035;32;34210;-80
2022/01/07 11:13:37;;;;;;;8.25;3.60;;;;;;;4.13;42.04;100479.00;4405050;32;36299;-80
2022/01/07 11:16:08;;;;;;;6.43;3.03;;;;;;;3.92;43.09;100490.06;4386555;32;33243;-76
2022/01/07 11:18:36;;;;;;;6.68;2.50;;;;;;;4.08;42.74;100475.88;4402441;32;33886;-80
2022/01/07 11:21:07;;;;;;;6.37;2.75;;;;;;;3.84;41.77;100472.81;4404282;32;32235;-79
2022/01/07 11:23:38;;;;;;;5.78;2.72;;;;;;;4.04;41.71;100482.59;4413503;32;35389;-79
2022/01/07 11:26:11;;;;;;;7.78;2.83;;;;;;;3.50;47.63;100467.00;4402082;32;33453;-75
2022/01/07 11:29:32;;;;;;;6.93;3.00;;;;;;;4.16;42.55;100478.69;4430171;32;34186;-78
2022/01/07 11:32:34;;;;;;;5.55;2.35;;;;;;;4.22;41.86;100474.53;4422271;32;31874;-80
2022/01/07 11:35:18;;;;;;;6.37;2.50;;;;;;;4.38;41.67;100471.19;4409314;32;35058;-78
2022/01/07 11:37:50;;;;;;;8.52;2.90;;;;;;;4.18;41.86;100468.53;4435891;32;34098;-81
2022/01/07 11:40:33;;;;;;;7.50;3.50;;;;;;;4.40;42.31;100463.72;4407425;32;32201;-78
2022/01/07 11:43:21;;;;;;;6.03;2.67;;;;;;;4.45;42.30;100447.84;4407568;32;34015;-79
2022/01/07 11:45:51;;;;;;;7.20;2.85;;;;;;;4.41;41.63;100451.84;4420164;32;34216;-79
2022/01/07 11:48:24;;;;;;;7.30;3.50;;;;;;;4.42;41.92;100437.25;4407782;32;32455;-80
2022/01/07 11:50:54;;;;;;;10.43;3.70;;;;;;;4.22;42.63;100450.09;4395298;32;31756;-80
2022/01/07 11:53:28;;;;;;;8.35;3.33;;;;;;;4.39;42.34;100441.13;4408821;32;33748;-80
2022/01/07 11:56:00;;;;;;;7.32;3.42;;;;;;;4.50;41.99;100440.09;4407646;32;33587;-80
2022/01/07 11:58:51;;;;;;;7.65;2.78;;;;;;;4.54;42.38;100449.66;4392409;32;32595;-80
2022/01/07 12:01:35;;;;;;;5.60;2.37;;;;;;;4.49;41.04;100441.09;4407699;32;32342;-80
2022/01/07 12:04:28;;;;;;;6.55;2.72;;;;;;;4.57;41.49;100427.56;4370291;32;32609;-79
2022/01/07 12:07:01;;;;;;;6.12;2.90;;;;;;;4.59;41.63;100434.56;4394895;32;32830;-80